Time;durP1;ratioP1;P1;durP2;ratioP2;P2;SDS_P1;SDS_P2;PMS_P1;PMS_P2;Temp;Humidity;BMP_temperature;BMP_pressure;BME280_temperature;BME280_humidity;BME280_pressure;Samples;Min_cycle;Max_cycle;Signal;HPM_P1;HPM_P2
2022/01/20 00:01:50;;;;;;;10.82;1.95;;;6.00;99.90;;;;;;6202045;23;20103;-92
2022/01/20 00:04:34;;;;;;;12.25;2.13;;;6.00;99.90;;;;;;6196657;23;20023;-92
2022/01/20 00:23:05;;;;;;;12.20;1.27;;;6.00;99.90;;;;;;6220783;23;20458;-93
2022/01/20 00:26:30;;;;;;;19.67;2.40;;;6.00;99.90;;;;;;6232486;23;20509;-92
2022/01/20 00:29:01;;;;;;;12.18;1.50;;;6.00;99.90;;;;;;6220644;23;20340;-93
2022/01/20 00:31:43;;;;;;;13.20;2.78;;;5.90;99.90;;;;;;6221478;23;20343;-92
2022/01/20 00:34:29;;;;;;;10.45;1.88;;;5.90;99.90;;;;;;6196170;23;20020;-93
2022/01/20 00:37:16;;;;;;;8.30;2.17;;;5.90;99.90;;;;;;6196882;23;20069;-93
2022/01/20 00:39:44;;;;;;;14.95;2.00;;;5.90;99.90;;;;;;6220799;23;20355;-92
2022/01/20 00:42:15;;;;;;;14.63;1.90;;;5.80;99.90;;;;;;6220737;23;20417;-92
2022/01/20 00:44:48;;;;;;;13.23;2.35;;;5.80;99.90;;;;;;6205332;23;20020;-92
2022/01/20 00:47:19;;;;;;;18.38;2.17;;;5.80;99.90;;;;;;6223989;23;20043;-92
2022/01/20 00:49:49;;;;;;;17.42;1.83;;;5.80;99.90;;;;;;6196591;23;20019;-92
2022/01/20 00:52:23;;;;;;;9.77;1.65;;;5.80;99.90;;;;;;6197184;23;20070;-93
2022/01/20 00:54:56;;;;;;;11.13;2.25;;;5.80;99.90;;;;;;6196614;23;20020;-92
2022/01/20 00:57:38;;;;;;;11.82;2.28;;;5.90;99.90;;;;;;6222105;23;20012;-93
2022/01/20 01:00:16;;;;;;;15.40;2.28;;;5.90;99.90;;;;;;6221071;23;20012;-92
2022/01/20 01:03:26;;;;;;;10.32;1.60;;;5.90;99.90;;;;;;6222348;23;20343;-92
2022/01/20 01:09:21;;;;;;;11.48;1.90;;;5.90;99.90;;;;;;6215862;23;20071;-93
2022/01/20 01:12:03;;;;;;;11.65;2.13;;;5.90;99.90;;;;;;6222527;23;20348;-94
2022/01/20 01:14:35;;;;;;;8.57;1.98;;;5.90;99.90;;;;;;6196595;23;20023;-93
2022/01/20 01:22:57;;;;;;;22.23;2.55;;;5.90;99.90;;;;;;6100326;23;20049;-93
2022/01/20 01:25:36;;;;;;;11.73;2.35;;;5.90;99.90;;;;;;6125478;23;20161;-94
2022/01/20 01:28:09;;;;;;;8.63;1.50;;;5.80;99.90;;;;;;6155960;23;20436;-92
2022/01/20 01:33:35;;;;;;;8.90;1.98;;;5.80;99.90;;;;;;6231574;22;20020;-92
2022/01/20 01:39:34;;;;;;;9.32;1.85;;;5.80;99.90;;;;;;6220032;23;20438;-93
2022/01/20 01:42:53;;;;;;;16.13;1.70;;;5.80;99.90;;;;;;6231210;23;20348;-93
2022/01/20 01:46:11;;;;;;;12.40;1.65;;;5.80;99.90;;;;;;6196082;23;20078;-93
2022/01/20 01:49:06;;;;;;;11.45;0.93;;;5.80;99.90;;;;;;6179565;23;20095;-93
2022/01/20 01:51:45;;;;;;;8.30;1.13;;;5.80;99.90;;;;;;6221089;23;20027;-92
2022/01/20 01:54:20;;;;;;;9.57;2.35;;;5.80;99.90;;;;;;6195737;23;20017;-92
2022/01/20 01:57:10;;;;;;;3.72;1.05;;;5.80;99.90;;;;;;6219516;23;20023;-92
2022/01/20 01:59:55;;;;;;;8.80;1.15;;;5.60;99.90;;;;;;6208592;23;20024;-93
2022/01/20 02:06:49;;;;;;;8.85;0.88;;;5.40;99.90;;;;;;6220516;23;20043;-94
2022/01/20 02:23:34;;;;;;;9.60;1.30;;;5.60;99.90;;;;;;6184855;23;20025;-94
2022/01/20 02:26:18;;;;;;;8.70;1.48;;;5.70;99.90;;;;;;6191283;23;20027;-94
2022/01/20 02:29:04;;;;;;;7.72;1.27;;;5.60;99.90;;;;;;6169111;23;20094;-94
2022/01/20 02:31:48;;;;;;;6.45;1.65;;;5.60;99.90;;;;;;6190260;23;20020;-94
2022/01/20 02:35:34;;;;;;;7.20;1.45;;;5.70;99.90;;;;;;6117971;23;20086;-93
2022/01/20 02:38:54;;;;;;;8.25;1.42;;;5.60;99.90;;;;;;6198972;23;20155;-94
2022/01/20 02:45:35;;;;;;;9.75;1.13;;;5.60;99.90;;;;;;6125575;23;20046;-95
2022/01/20 02:48:09;;;;;;;10.82;1.30;;;5.60;99.90;;;;;;6121075;23;20006;-94
2022/01/20 02:51:33;;;;;;;15.52;1.63;;;5.50;99.90;;;;;;6122197;23;20127;-93
2022/01/20 02:54:09;;;;;;;14.45;2.20;;;5.50;99.90;;;;;;6148442;23;20028;-93
2022/01/20 02:56:56;;;;;;;13.05;2.08;;;5.60;99.90;;;;;;6130623;23;20013;-92
2022/01/20 02:59:28;;;;;;;14.88;2.03;;;5.60;99.90;;;;;;6124275;23;20068;-93
2022/01/20 03:01:55;;;;;;;19.13;2.75;;;5.30;99.90;;;;;;6100045;23;20014;-92
2022/01/20 03:04:26;;;;;;;18.25;3.50;;;5.30;99.90;;;;;;6077270;23;20425;-92
2022/01/20 03:07:00;;;;;;;8.60;1.17;;;5.30;99.90;;;;;;6102956;23;20026;-92
2022/01/20 03:09:29;;;;;;;4.43;1.30;;;5.10;99.90;;;;;;6073229;23;20026;-92
2022/01/20 03:12:06;;;;;;;14.75;2.15;;;5.20;99.90;;;;;;6075328;23;20113;-92
2022/01/20 03:14:39;;;;;;;12.85;1.83;;;5.10;99.90;;;;;;6157564;23;20022;-92
2022/01/20 03:17:14;;;;;;;14.65;3.50;;;5.20;99.90;;;;;;6101264;23;20022;-92
2022/01/20 03:19:47;;;;;;;10.48;3.20;;;5.10;99.90;;;;;;6156869;23;20020;-92
2022/01/20 03:22:36;;;;;;;15.82;3.30;;;5.20;99.90;;;;;;6196669;23;20017;-93
2022/01/20 03:25:07;;;;;;;23.90;3.47;;;5.20;99.90;;;;;;6191071;23;20024;-92
2022/01/20 03:32:33;;;;;;;11.18;2.45;;;5.30;99.90;;;;;;6122091;23;20026;-93
2022/01/20 03:35:14;;;;;;;15.73;2.33;;;5.40;99.90;;;;;;6078273;23;20049;-93
2022/01/20 03:38:09;;;;;;;10.38;1.45;;;5.40;99.90;;;;;;6101333;23;20095;-92
2022/01/20 03:40:44;;;;;;;15.85;2.80;;;5.50;99.90;;;;;;6172858;23;20120;-92
2022/01/20 03:43:14;;;;;;;13.65;1.92;;;5.50;99.90;;;;;;6190874;23;20020;-92
2022/01/20 03:45:56;;;;;;;18.05;3.90;;;5.50;99.90;;;;;;6168743;23;20021;-92
2022/01/20 03:48:38;;;;;;;16.23;2.33;;;5.50;96.00;;;;;;6170101;23;20031;-93
2022/01/20 03:59:07;;;;;;;13.88;2.70;;;5.40;99.90;;;;;;6200789;23;20451;-93
2022/01/20 04:01:38;;;;;;;15.85;2.38;;;5.40;88.10;;;;;;6166724;23;20023;-92
2022/01/20 04:05:16;;;;;;;22.95;2.60;;;5.30;97.30;;;;;;6180197;23;20017;-93
2022/01/20 04:08:39;;;;;;;13.65;2.95;;;5.30;99.90;;;;;;6176879;23;20043;-93
2022/01/20 04:11:22;;;;;;;18.30;2.17;;;5.10;83.10;;;;;;6196907;23;20020;-92
2022/01/20 04:14:25;;;;;;;16.23;2.55;;;5.10;88.70;;;;;;6191597;23;20040;-93
2022/01/20 04:19:35;;;;;;;8.40;2.17;;;5.20;87.30;;;;;;6196321;23;20023;-92
2022/01/20 04:22:14;;;;;;;11.80;2.70;;;5.20;94.10;;;;;;6190895;23;20444;-93
2022/01/20 04:24:53;;;;;;;6.65;1.77;;;5.20;82.30;;;;;;6192456;23;20073;-92
2022/01/20 04:27:42;;;;;;;16.08;2.53;;;5.20;87.30;;;;;;6167445;23;20432;-93
2022/01/20 04:30:24;;;;;;;16.80;2.53;;;5.30;93.80;;;;;;6165693;23;20020;-91
2022/01/20 04:33:07;;;;;;;11.40;2.00;;;5.10;59.70;;;;;;6191331;23;20115;-91
2022/01/20 04:35:59;;;;;;;7.40;1.35;;;5.20;66.80;;;;;;6170365;23;20016;-92
2022/01/20 04:38:30;;;;;;;11.65;2.28;;;5.20;72.90;;;;;;6161151;23;20095;-93
2022/01/20 04:41:13;;;;;;;15.10;2.10;;;5.20;66.10;;;;;;6161687;23;20104;-92
2022/01/20 04:43:56;;;;;;;14.88;2.50;;;5.20;77.40;;;;;;6139936;23;20024;-91
2022/01/20 05:00:01;;;;;;;11.60;2.17;;;5.30;97.30;;;;;;6250650;22;20043;-91
2022/01/20 05:03:06;;;;;;;13.60;2.13;;;5.20;71.90;;;;;;6257304;22;20038;-92
2022/01/20 05:05:44;;;;;;;25.50;2.92;;;5.30;99.90;;;;;;6227213;22;20054;-92
2022/01/20 05:11:02;;;;;;;23.95;2.65;;;5.20;90.20;;;;;;6239380;23;20236;-93
2022/01/20 05:22:01;;;;;;;16.98;2.72;;;5.10;90.50;;;;;;6254412;22;20022;-93
2022/01/20 06:01:31;;;;;;;16.42;3.15;;;4.90;99.90;;;;;;6211973;23;20016;-91
2022/01/20 06:05:26;;;;;;;11.82;1.45;;;4.70;99.90;;;;;;6198313;23;20066;-92
2022/01/20 06:12:36;;;;;;;20.20;2.83;;;4.70;99.90;;;;;;6246543;23;20011;-91
2022/01/20 06:24:05;;;;;;;12.48;2.00;;;4.90;99.90;;;;;;6232938;22;20050;-92
2022/01/20 06:27:08;;;;;;;11.73;2.38;;;4.90;99.90;;;;;;6245109;23;20091;-92
2022/01/20 06:29:42;;;;;;;15.40;1.85;;;5.00;99.90;;;;;;6219864;23;20106;-93
2022/01/20 06:36:32;;;;;;;12.48;2.00;;;4.90;99.90;;;;;;6242557;22;20021;-92
2022/01/20 06:45:30;;;;;;;14.00;2.63;;;5.00;99.90;;;;;;6246504;23;20354;-93
2022/01/20 06:48:44;;;;;;;;;;;;;;;;;;;;;
2022/01/20 06:52:05;;;;;;;;;;;;;;;;;;;;;
2022/01/20 06:55:34;;;;;;;15.60;2.50;;;5.00;99.90;;;;;;6211232;23;20100;-92
2022/01/20 06:58:22;;;;;;;8.25;2.47;;;5.00;99.90;;;;;;6141895;23;20039;-92
2022/01/20 07:01:25;;;;;;;15.98;2.22;;;4.90;99.90;;;;;;6190392;23;20027;-91
2022/01/20 07:04:32;;;;;;;;;;;;;;;;;;;;;
2022/01/20 07:15:26;;;;;;;8.43;1.38;;;5.00;99.90;;;;;;6138386;23;20103;-93
2022/01/20 07:18:42;;;;;;;7.85;1.20;;;4.90;99.90;;;;;;6216169;23;20016;-92
2022/01/20 07:27:12;;;;;;;24.45;2.42;;;4.90;99.90;;;;;;6151818;23;20012;-93
2022/01/20 07:33:30;;;;;;;18.23;1.30;;;4.80;99.50;;;;;;6246692;22;20031;-92
2022/01/20 07:36:40;;;;;;;11.65;1.55;;;4.80;99.90;;;;;;6219512;23;20020;-93
2022/01/20 07:39:58;;;;;;;11.73;1.05;;;4.80;99.90;;;;;;6246973;22;20350;-92
2022/01/20 07:43:14;;;;;;;6.88;1.20;;;4.80;99.90;;;;;;6256123;22;20258;-93
2022/01/20 07:46:28;;;;;;;9.90;0.90;;;4.90;99.90;;;;;;6257020;22;20015;-93
2022/01/20 07:49:50;;;;;;;6.43;2.30;;;4.80;72.40;;;;;;6221997;23;20016;-92
2022/01/20 07:53:24;;;;;;;11.25;1.58;;;4.80;99.40;;;;;;6253351;22;20015;-92
2022/01/20 07:59:57;;;;;;;12.38;2.17;;;4.80;99.90;;;;;;6242159;22;20042;-93
2022/01/20 08:03:19;;;;;;;17.40;1.85;;;4.70;99.90;;;;;;6256966;22;20077;-93
2022/01/20 08:06:40;;;;;;;12.68;1.92;;;4.70;99.90;;;;;;6279173;22;20085;-92
2022/01/20 08:10:13;;;;;;;14.45;4.13;;;4.70;99.90;;;;;;6251164;22;20023;-93
2022/01/20 08:14:10;;;;;;;10.85;1.80;;;4.70;99.90;;;;;;6262994;22;20114;-93
2022/01/20 08:17:20;;;;;;;13.93;1.52;;;4.60;99.90;;;;;;6207250;22;20098;-92
2022/01/20 08:20:54;;;;;;;11.23;1.42;;;4.60;99.90;;;;;;6244369;22;20129;-93
2022/01/20 08:23:44;;;;;;;27.80;2.92;;;4.60;99.90;;;;;;6226760;22;20043;-92
2022/01/20 08:26:53;;;;;;;15.20;1.63;;;4.60;99.90;;;;;;6255781;22;20094;-92
2022/01/20 08:30:23;;;;;;;;;;;;;;;;;;;;;
2022/01/20 08:36:34;;;;;;;19.23;2.58;;;4.70;99.90;;;;;;6242757;22;20046;-93
2022/01/20 08:42:56;;;;;;;23.33;3.50;;;4.60;99.90;;;;;;6251522;22;20442;-92
2022/01/20 08:53:26;;;;;;;8.00;1.45;;;4.60;99.90;;;;;;6180051;22;20056;-91
2022/01/20 08:56:30;;;;;;;8.73;2.15;;;4.70;99.90;;;;;;6219002;22;20075;-92
2022/01/20 08:59:12;;;;;;;9.43;1.05;;;4.70;99.90;;;;;;6223641;23;20031;-93
2022/01/20 09:01:43;;;;;;;12.43;1.63;;;4.80;99.90;;;;;;6197353;23;20020;-92
2022/01/20 09:05:00;;;;;;;;;;;;;;;;;;;;;
2022/01/20 09:28:29;;;;;;;;;;;;;;;;;;;;;
2022/01/20 09:31:37;;;;;;;6.78;1.27;;;4.70;99.90;;;;;;5845417;24;20352;-94
2022/01/20 09:58:10;;;;;;;10.73;1.85;;;5.00;99.90;;;;;;5977034;23;20400;-93
2022/01/20 10:01:05;;;;;;;10.95;1.10;;;5.00;99.90;;;;;;5991102;23;20079;-93
2022/01/20 10:07:54;;;;;;;11.23;1.45;;;5.10;99.90;;;;;;5959649;23;20024;-93
2022/01/20 10:10:56;;;;;;;10.88;1.25;;;5.10;99.90;;;;;;5986636;23;20119;-92
2022/01/20 10:14:08;;;;;;;8.82;1.48;;;5.20;99.90;;;;;;6014256;23;20023;-93
2022/01/20 10:17:04;;;;;;;11.13;1.58;;;5.20;99.90;;;;;;6095946;23;20098;-92
2022/01/20 10:23:13;;;;;;;16.40;2.95;;;5.30;99.90;;;;;;6164720;23;20095;-93
2022/01/20 10:26:36;;;;;;;11.82;2.13;;;5.30;99.90;;;;;;6220420;23;20062;-92
2022/01/20 10:29:43;;;;;;;7.20;1.08;;;5.30;99.90;;;;;;6188774;23;20391;-93
2022/01/20 10:32:59;;;;;;;5.20;1.55;;;5.40;99.90;;;;;;6204791;23;20375;-93
2022/01/20 10:35:45;;;;;;;13.52;2.05;;;5.50;99.90;;;;;;6197437;23;20355;-94
2022/01/20 10:48:01;;;;;;;16.90;2.03;;;5.40;99.90;;;;;;6266798;22;20058;-90
2022/01/20 10:50:35;;;;;;;19.40;2.10;;;5.00;99.90;;;;;;6206729;23;20024;-92
2022/01/20 10:53:26;;;;;;;11.88;2.42;;;4.80;99.90;;;;;;6216476;23;20020;-90
2022/01/20 10:56:13;;;;;;;11.23;1.65;;;4.70;99.90;;;;;;6196553;23;20051;-92
2022/01/20 10:59:12;;;;;;;11.90;1.52;;;4.80;99.90;;;;;;6197918;23;20019;-92
2022/01/20 11:02:22;;;;;;;7.53;1.23;;;4.90;99.90;;;;;;6219562;23;20388;-93
2022/01/20 11:05:30;;;;;;;14.32;1.63;;;4.90;99.90;;;;;;6220355;23;20090;-92
2022/01/20 11:08:42;;;;;;;19.55;1.65;;;4.80;99.90;;;;;;6175482;23;20103;-92
2022/01/20 11:11:43;;;;;;;;;;;;;;;;;;;;;
2022/01/20 11:14:56;;;;;;;11.52;1.50;;;5.00;99.90;;;;;;6245812;23;20026;-92
2022/01/20 11:17:44;;;;;;;11.88;1.85;;;5.00;99.90;;;;;;6208332;23;20036;-92
2022/01/20 11:20:18;;;;;;;8.23;1.63;;;5.10;99.90;;;;;;6219675;23;20051;-92
2022/01/20 11:23:23;;;;;;;14.23;1.95;;;5.10;99.90;;;;;;6207962;23;20020;-92
2022/01/20 11:26:17;;;;;;;10.95;1.92;;;5.20;99.90;;;;;;6219745;23;20024;-92
2022/01/20 11:29:55;;;;;;;10.93;1.48;;;5.20;99.90;;;;;;6213161;23;20034;-92
2022/01/20 11:48:56;;;;;;;8.65;2.72;;;5.50;99.90;;;;;;6222137;23;20020;-93
2022/01/20 11:51:45;;;;;;;20.02;3.28;;;5.50;99.90;;;;;;6221577;23;20020;-92
2022/01/20 11:54:30;;;;;;;12.35;1.70;;;5.50;99.90;;;;;;6221118;23;20024;-93
2022/01/20 11:57:17;;;;;;;9.68;1.73;;;5.50;99.90;;;;;;6223167;23;20012;-93
2022/01/20 12:00:41;;;;;;;21.63;2.15;;;5.50;99.90;;;;;;6220959;23;20016;-93
2022/01/20 12:04:47;;;;;;;12.45;2.25;;;5.50;99.90;;;;;;6125521;23;20029;-92
2022/01/20 12:07:49;;;;;;;15.10;1.80;;;5.50;99.90;;;;;;6083062;23;20045;-92
2022/01/20 12:10:48;;;;;;;9.88;2.47;;;5.20;99.90;;;;;;6245122;22;20035;-93
2022/01/20 12:13:45;;;;;;;10.85;1.45;;;5.20;99.90;;;;;;6198810;23;20016;-92
2022/01/20 12:16:45;;;;;;;8.68;1.60;;;4.90;99.90;;;;;;6222660;23;20016;-92
2022/01/20 12:19:28;;;;;;;8.52;1.30;;;4.80;99.90;;;;;;6181101;23;20024;-93
2022/01/20 12:22:15;;;;;;;8.65;1.38;;;4.90;99.90;;;;;;6194904;23;20027;-93
2022/01/20 12:24:52;;;;;;;12.35;1.58;;;5.00;99.90;;;;;;6169685;23;20017;-94
2022/01/20 12:27:57;;;;;;;;;;;;;;;;;;;;;
2022/01/20 12:31:26;;;;;;;4.97;1.05;;;5.00;99.90;;;;;;6096656;23;20093;-92
2022/01/20 12:34:06;;;;;;;15.48;2.08;;;5.10;99.90;;;;;;6074039;23;20033;-93
2022/01/20 12:37:14;;;;;;;11.25;1.88;;;5.10;99.90;;;;;;6051514;23;20018;-93
2022/01/20 12:44:03;;;;;;;5.35;1.77;;;5.20;99.90;;;;;;6266007;22;20035;-92
2022/01/20 12:46:56;;;;;;;12.68;1.70;;;5.20;99.90;;;;;;6181323;22;20020;-91
2022/01/20 12:49:37;;;;;;;19.67;2.58;;;5.20;99.90;;;;;;6234772;23;20039;-90
2022/01/20 12:52:55;;;;;;;;;;;;;;;;;;;;;
2022/01/20 12:56:03;;;;;;;14.80;2.95;;;5.10;99.90;;;;;;6221022;23;20027;-91
2022/01/20 13:02:27;;;;;;;17.35;2.78;;;5.10;99.90;;;;;;6228214;23;20087;-92
2022/01/20 13:05:03;;;;;;;11.88;2.45;;;5.20;99.90;;;;;;6224560;23;20177;-91
2022/01/20 13:07:39;;;;;;;14.02;1.88;;;5.10;99.90;;;;;;6198495;23;20512;-91
2022/01/20 13:10:47;;;;;;;16.90;2.13;;;5.20;99.90;;;;;;6221860;23;20032;-91
2022/01/20 13:13:27;;;;;;;4.75;1.05;;;5.10;99.90;;;;;;6222228;23;20050;-92
2022/01/20 13:16:34;;;;;;;;;;;;;;;;;;;;;
2022/01/20 13:25:45;;;;;;;7.13;1.55;;;5.10;99.90;;;;;;6249469;22;20016;-85
2022/01/20 13:28:13;;;;;;;12.18;1.35;;;5.10;99.90;;;;;;6277198;22;20090;-87
2022/01/20 13:31:31;;;;;;;8.60;1.48;;;5.10;99.90;;;;;;6252368;22;20453;-93
2022/01/20 13:34:28;;;;;;;7.57;1.33;;;5.10;99.90;;;;;;6213975;22;20023;-91
2022/01/20 15:16:08;;;;;;;7.30;1.63;;;4.60;99.90;;;;;;6251744;22;20026;-93
2022/01/20 16:35:12;;;;;;;;;;;;;;;;;;;;;
2022/01/20 16:51:34;;;;;;;9.25;1.80;;;4.40;99.90;;;;;;6246600;23;20110;-92
2022/01/20 16:54:37;;;;;;;2.85;1.42;;;4.40;99.90;;;;;;6246933;23;20463;-94
2022/01/20 16:57:51;;;;;;;7.72;1.40;;;4.40;99.90;;;;;;6246836;23;20095;-92
2022/01/20 17:00:32;;;;;;;4.32;0.68;;;4.40;99.90;;;;;;6210300;23;20024;-92
2022/01/20 17:03:13;;;;;;;9.32;2.42;;;4.40;99.90;;;;;;6167515;23;20103;-92
2022/01/20 17:05:59;;;;;;;12.77;2.70;;;4.40;99.90;;;;;;6191089;23;20111;-91
2022/01/20 17:08:30;;;;;;;8.15;1.73;;;4.30;99.90;;;;;;6161740;23;20068;-92
2022/01/20 17:11:02;;;;;;;15.68;1.88;;;4.30;99.90;;;;;;6137085;23;20017;-91
2022/01/20 17:13:44;;;;;;;13.30;2.00;;;4.30;99.90;;;;;;6162825;23;20031;-92
2022/01/20 17:17:31;;;;;;;11.35;1.67;;;4.30;99.90;;;;;;6167925;23;20106;-91
2022/01/20 17:20:18;;;;;;;12.10;1.98;;;4.30;99.90;;;;;;6161133;23;20021;-93
2022/01/20 17:23:43;;;;;;;11.63;1.83;;;4.30;99.90;;;;;;6165174;23;20009;-92
2022/01/20 17:26:18;;;;;;;10.43;1.20;;;4.30;99.90;;;;;;6137820;23;20025;-91
2022/01/20 17:29:16;;;;;;;15.23;2.20;;;4.30;99.90;;;;;;6163659;23;20036;-91
2022/01/20 17:31:48;;;;;;;17.33;2.70;;;4.30;99.90;;;;;;6163349;23;20475;-92
2022/01/20 17:34:21;;;;;;;11.73;3.13;;;4.40;99.90;;;;;;6161137;23;20025;-92
2022/01/20 17:36:50;;;;;;;11.00;1.40;;;4.50;99.90;;;;;;6161143;23;20104;-92
2022/01/20 17:39:39;;;;;;;16.00;2.20;;;4.50;99.90;;;;;;6162023;23;20028;-93
2022/01/20 17:42:49;;;;;;;17.25;2.30;;;4.50;99.90;;;;;;6170111;23;20032;-92
2022/01/20 17:50:39;;;;;;;;;;;;;;;;;;;;;
2022/01/20 17:54:56;;;;;;;4.88;0.82;;;4.20;99.90;;;;;;6129913;23;20021;-92
2022/01/20 17:58:10;;;;;;;11.98;1.25;;;4.20;99.90;;;;;;6163911;23;20025;-93
2022/01/20 18:01:11;;;;;;;10.30;2.00;;;4.10;99.90;;;;;;6156612;23;20020;-92
2022/01/20 18:03:51;;;;;;;18.30;1.70;;;4.10;99.90;;;;;;6167818;23;20448;-92
2022/01/20 18:06:47;;;;;;;9.93;1.27;;;4.20;99.90;;;;;;6168249;23;20031;-95
2022/01/20 18:14:27;;;;;;;12.25;1.63;;;4.10;99.90;;;;;;6217727;23;20043;-93
2022/01/20 18:17:34;;;;;;;7.50;1.48;;;4.20;99.90;;;;;;6125297;23;20096;-92
2022/01/20 18:34:23;;;;;;;9.40;1.88;;;4.50;99.90;;;;;;6222653;22;20027;-93
2022/01/20 19:37:29;;;;;;;18.65;2.25;;;4.60;99.90;;;;;;6238412;22;20043;-91
2022/01/20 19:40:51;;;;;;;3.88;1.50;;;4.50;99.90;;;;;;6185610;23;20099;-90
2022/01/20 20:20:46;;;;;;;11.10;1.95;;;4.50;99.90;;;;;;6210142;22;20031;-93
2022/01/20 20:24:00;;;;;;;17.20;1.83;;;4.50;99.90;;;;;;6247866;23;20471;-91
2022/01/20 20:26:47;;;;;;;12.10;1.88;;;4.50;99.90;;;;;;6248343;23;20019;-91
2022/01/20 20:41:11;;;;;;;9.38;1.02;;;4.60;99.90;;;;;;6097332;23;20062;-94
2022/01/20 20:48:21;;;;;;;12.15;1.38;;;4.70;99.90;;;;;;6096582;23;20469;-91
2022/01/20 20:51:14;;;;;;;5.88;1.30;;;4.70;99.90;;;;;;6163669;23;20309;-91
2022/01/20 20:53:57;;;;;;;18.13;1.53;;;4.60;99.90;;;;;;6222394;23;20016;-91
2022/01/20 20:56:36;;;;;;;6.30;0.80;;;4.60;99.90;;;;;;6246716;23;20366;-91
2022/01/20 20:59:28;;;;;;;8.45;2.38;;;4.60;99.90;;;;;;6224444;23;20013;-93
2022/01/20 21:02:14;;;;;;;9.10;1.05;;;4.60;99.90;;;;;;6223597;23;20091;-91
2022/01/20 21:05:07;;;;;;;9.25;1.27;;;4.70;99.90;;;;;;6222417;23;20022;-90
2022/01/20 21:07:44;;;;;;;14.13;1.15;;;4.70;99.90;;;;;;6248526;23;20012;-90
2022/01/20 21:18:03;;;;;;;10.63;1.20;;;4.60;99.90;;;;;;6274292;22;20011;-93
2022/01/20 21:35:31;;;;;;;;;;;;;;;;;;;;;
2022/01/20 21:47:46;;;;;;;12.18;1.40;;;4.50;99.90;;;;;;6058561;23;20377;-92
2022/01/20 21:50:36;;;;;;;13.95;1.42;;;4.50;99.90;;;;;;6096621;23;20516;-91
2022/01/20 21:57:57;;;;;;;;;;;;;;;;;;;;;
2022/01/20 22:01:35;;;;;;;;;;;;;;;;;;;;;
2022/01/20 22:30:32;;;;;;;6.43;0.80;;;4.60;99.90;;;;;;6028276;23;20041;-93
2022/01/20 22:51:22;;;;;;;8.65;1.00;;;4.60;99.90;;;;;;5845798;24;20027;-94
